sensor_id;sensor_type;location;lat;lon;timestamp;P1;durP1;ratioP1;P2;durP2;ratioP2
10845;SDS011;5476;51.540;7.186;2022-09-12T00:00:41;21.30;;;15.15;;
10845;SDS011;5476;51.540;7.186;2022-09-12T00:03:09;23.63;;;14.73;;
10845;SDS011;5476;51.540;7.186;2022-09-12T00:05:39;23.48;;;15.45;;
10845;SDS011;5476;51.540;7.186;2022-09-12T00:08:08;20.52;;;15.23;;
10845;SDS011;5476;51.540;7.186;2022-09-12T00:10:36;20.17;;;15.25;;
10845;SDS011;5476;51.540;7.186;2022-09-12T00:13:05;21.02;;;14.85;;
10845;SDS011;5476;51.540;7.186;2022-09-12T00:15:36;19.63;;;15.23;;
10845;SDS011;5476;51.540;7.186;2022-09-12T00:18:03;19.98;;;15.30;;
10845;SDS011;5476;51.540;7.186;2022-09-12T00:20:31;20.20;;;14.10;;
10845;SDS011;5476;51.540;7.186;2022-09-12T00:22:58;18.75;;;14.68;;
10845;SDS011;5476;51.540;7.186;2022-09-12T00:25:26;22.40;;;14.77;;
10845;SDS011;5476;51.540;7.186;2022-09-12T00:27:55;19.20;;;13.45;;
10845;SDS011;5476;51.540;7.186;2022-09-12T00:30:22;18.88;;;14.40;;
10845;SDS011;5476;51.540;7.186;2022-09-12T00:32:50;21.20;;;14.80;;
10845;SDS011;5476;51.540;7.186;2022-09-12T00:35:18;18.40;;;14.15;;
10845;SDS011;5476;51.540;7.186;2022-09-12T00:37:45;18.85;;;14.52;;
10845;SDS011;5476;51.540;7.186;2022-09-12T00:40:13;19.48;;;13.88;;
10845;SDS011;5476;51.540;7.186;2022-09-12T00:42:41;19.90;;;14.32;;
10845;SDS011;5476;51.540;7.186;2022-09-12T00:45:09;20.00;;;14.17;;
10845;SDS011;5476;51.540;7.186;2022-09-12T00:47:46;19.00;;;13.85;;
10845;SDS011;5476;51.540;7.186;2022-09-12T00:50:13;19.73;;;14.55;;
10845;SDS011;5476;51.540;7.186;2022-09-12T00:52:43;19.67;;;14.05;;
10845;SDS011;5476;51.540;7.186;2022-09-12T00:55:11;21.40;;;14.43;;
10845;SDS011;5476;51.540;7.186;2022-09-12T00:57:43;18.50;;;13.73;;
10845;SDS011;5476;51.540;7.186;2022-09-12T01:00:15;19.90;;;14.30;;
10845;SDS011;5476;51.540;7.186;2022-09-12T01:02:43;18.00;;;13.50;;
10845;SDS011;5476;51.540;7.186;2022-09-12T01:05:13;16.48;;;13.88;;
10845;SDS011;5476;51.540;7.186;2022-09-12T01:07:40;16.33;;;13.45;;
10845;SDS011;5476;51.540;7.186;2022-09-12T01:10:12;19.10;;;13.93;;
10845;SDS011;5476;51.540;7.186;2022-09-12T01:12:41;21.08;;;14.57;;
10845;SDS011;5476;51.540;7.186;2022-09-12T01:15:09;18.73;;;14.40;;
10845;SDS011;5476;51.540;7.186;2022-09-12T01:17:38;18.30;;;14.50;;
10845;SDS011;5476;51.540;7.186;2022-09-12T01:26:11;16.77;;;13.07;;
10845;SDS011;5476;51.540;7.186;2022-09-12T01:28:56;20.10;;;13.87;;
10845;SDS011;5476;51.540;7.186;2022-09-12T01:31:38;15.80;;;12.57;;
10845;SDS011;5476;51.540;7.186;2022-09-12T01:34:13;19.17;;;13.57;;
10845;SDS011;5476;51.540;7.186;2022-09-12T01:36:46;18.63;;;13.60;;
10845;SDS011;5476;51.540;7.186;2022-09-12T01:39:25;16.70;;;13.37;;
10845;SDS011;5476;51.540;7.186;2022-09-12T01:41:59;19.40;;;13.87;;
10845;SDS011;5476;51.540;7.186;2022-09-12T01:44:36;18.97;;;13.70;;
10845;SDS011;5476;51.540;7.186;2022-09-12T01:47:14;21.35;;;13.38;;
10845;SDS011;5476;51.540;7.186;2022-09-12T01:49:48;18.47;;;13.17;;
10845;SDS011;5476;51.540;7.186;2022-09-12T01:52:24;18.77;;;13.17;;
10845;SDS011;5476;51.540;7.186;2022-09-12T01:54:56;18.07;;;12.93;;
10845;SDS011;5476;51.540;7.186;2022-09-12T01:57:28;17.10;;;13.00;;
10845;SDS011;5476;51.540;7.186;2022-09-12T02:00:03;17.13;;;12.40;;
10845;SDS011;5476;51.540;7.186;2022-09-12T02:02:34;19.57;;;13.30;;
10845;SDS011;5476;51.540;7.186;2022-09-12T02:05:04;18.13;;;13.03;;
10845;SDS011;5476;51.540;7.186;2022-09-12T02:07:35;19.00;;;12.27;;
10845;SDS011;5476;51.540;7.186;2022-09-12T02:10:06;21.17;;;13.50;;
10845;SDS011;5476;51.540;7.186;2022-09-12T02:12:37;17.33;;;12.80;;
10845;SDS011;5476;51.540;7.186;2022-09-12T02:15:08;18.43;;;12.43;;
10845;SDS011;5476;51.540;7.186;2022-09-12T02:17:38;16.63;;;12.97;;
10845;SDS011;5476;51.540;7.186;2022-09-12T02:20:07;18.47;;;12.60;;
10845;SDS011;5476;51.540;7.186;2022-09-12T02:22:36;16.20;;;12.87;;
10845;SDS011;5476;51.540;7.186;2022-09-12T02:25:05;16.83;;;13.53;;
10845;SDS011;5476;51.540;7.186;2022-09-12T02:27:36;17.27;;;13.30;;
10845;SDS011;5476;51.540;7.186;2022-09-12T02:30:07;19.43;;;13.37;;
10845;SDS011;5476;51.540;7.186;2022-09-12T02:32:35;20.20;;;13.47;;
10845;SDS011;5476;51.540;7.186;2022-09-12T02:35:07;22.40;;;13.87;;
10845;SDS011;5476;51.540;7.186;2022-09-12T02:37:44;19.80;;;13.60;;
10845;SDS011;5476;51.540;7.186;2022-09-12T02:40:18;18.67;;;12.53;;
10845;SDS011;5476;51.540;7.186;2022-09-12T02:42:45;16.40;;;13.27;;
10845;SDS011;5476;51.540;7.186;2022-09-12T02:45:12;19.17;;;13.67;;
10845;SDS011;5476;51.540;7.186;2022-09-12T02:47:42;19.57;;;13.10;;
10845;SDS011;5476;51.540;7.186;2022-09-12T02:50:14;17.33;;;12.93;;
10845;SDS011;5476;51.540;7.186;2022-09-12T02:52:41;17.23;;;12.93;;
10845;SDS011;5476;51.540;7.186;2022-09-12T02:55:09;19.03;;;12.70;;
10845;SDS011;5476;51.540;7.186;2022-09-12T02:57:37;16.73;;;13.00;;
10845;SDS011;5476;51.540;7.186;2022-09-12T03:00:04;15.13;;;12.50;;
10845;SDS011;5476;51.540;7.186;2022-09-12T03:02:36;17.60;;;12.70;;
10845;SDS011;5476;51.540;7.186;2022-09-12T03:05:26;15.43;;;12.37;;
10845;SDS011;5476;51.540;7.186;2022-09-12T03:11:28;17.60;;;13.10;;
10845;SDS011;5476;51.540;7.186;2022-09-12T03:14:11;16.97;;;12.70;;
10845;SDS011;5476;51.540;7.186;2022-09-12T03:16:52;18.90;;;13.33;;
10845;SDS011;5476;51.540;7.186;2022-09-12T03:19:28;20.23;;;13.87;;
10845;SDS011;5476;51.540;7.186;2022-09-12T03:22:02;18.97;;;13.57;;
10845;SDS011;5476;51.540;7.186;2022-09-12T03:24:39;18.53;;;13.17;;
10845;SDS011;5476;51.540;7.186;2022-09-12T03:27:14;18.80;;;13.17;;
10845;SDS011;5476;51.540;7.186;2022-09-12T03:29:46;16.03;;;12.53;;
10845;SDS011;5476;51.540;7.186;2022-09-12T03:32:14;18.27;;;13.57;;
10845;SDS011;5476;51.540;7.186;2022-09-12T03:34:43;18.73;;;13.57;;
10845;SDS011;5476;51.540;7.186;2022-09-12T03:37:10;17.93;;;13.43;;
10845;SDS011;5476;51.540;7.186;2022-09-12T03:39:37;19.93;;;14.23;;
10845;SDS011;5476;51.540;7.186;2022-09-12T03:42:04;18.10;;;13.37;;
10845;SDS011;5476;51.540;7.186;2022-09-12T03:44:32;17.40;;;12.17;;
10845;SDS011;5476;51.540;7.186;2022-09-12T03:46:59;22.60;;;13.43;;
10845;SDS011;5476;51.540;7.186;2022-09-12T03:49:26;18.97;;;12.90;;
10845;SDS011;5476;51.540;7.186;2022-09-12T03:51:55;18.00;;;12.80;;
10845;SDS011;5476;51.540;7.186;2022-09-12T03:54:22;16.57;;;13.20;;
10845;SDS011;5476;51.540;7.186;2022-09-12T03:56:49;17.57;;;13.10;;
10845;SDS011;5476;51.540;7.186;2022-09-12T03:59:16;17.67;;;13.00;;
10845;SDS011;5476;51.540;7.186;2022-09-12T04:01:43;17.53;;;13.63;;
10845;SDS011;5476;51.540;7.186;2022-09-12T04:04:10;19.53;;;13.43;;
10845;SDS011;5476;51.540;7.186;2022-09-12T04:06:38;19.93;;;13.23;;
10845;SDS011;5476;51.540;7.186;2022-09-12T04:09:07;19.33;;;13.70;;
10845;SDS011;5476;51.540;7.186;2022-09-12T04:11:34;17.67;;;13.17;;
10845;SDS011;5476;51.540;7.186;2022-09-12T04:14:01;19.43;;;13.43;;
10845;SDS011;5476;51.540;7.186;2022-09-12T04:16:29;19.23;;;13.37;;
10845;SDS011;5476;51.540;7.186;2022-09-12T04:18:56;17.03;;;13.30;;
10845;SDS011;5476;51.540;7.186;2022-09-12T04:21:23;20.00;;;13.80;;
10845;SDS011;5476;51.540;7.186;2022-09-12T04:23:50;18.20;;;13.30;;
10845;SDS011;5476;51.540;7.186;2022-09-12T04:26:19;16.50;;;12.93;;
10845;SDS011;5476;51.540;7.186;2022-09-12T04:28:46;19.60;;;13.13;;
10845;SDS011;5476;51.540;7.186;2022-09-12T04:31:14;16.83;;;12.87;;
10845;SDS011;5476;51.540;7.186;2022-09-12T04:33:44;16.97;;;13.77;;
10845;SDS011;5476;51.540;7.186;2022-09-12T04:36:12;15.90;;;12.87;;
10845;SDS011;5476;51.540;7.186;2022-09-12T04:38:41;17.73;;;12.87;;
10845;SDS011;5476;51.540;7.186;2022-09-12T04:41:10;19.77;;;12.87;;
10845;SDS011;5476;51.540;7.186;2022-09-12T04:43:38;20.23;;;13.97;;
10845;SDS011;5476;51.540;7.186;2022-09-12T04:46:06;17.67;;;13.00;;
10845;SDS011;5476;51.540;7.186;2022-09-12T04:48:33;20.33;;;13.00;;
10845;SDS011;5476;51.540;7.186;2022-09-12T04:51:07;21.97;;;14.20;;
10845;SDS011;5476;51.540;7.186;2022-09-12T04:53:34;19.27;;;13.73;;
10845;SDS011;5476;51.540;7.186;2022-09-12T04:56:03;21.13;;;13.27;;
10845;SDS011;5476;51.540;7.186;2022-09-12T04:58:31;20.27;;;13.80;;
10845;SDS011;5476;51.540;7.186;2022-09-12T05:01:03;22.57;;;14.00;;
10845;SDS011;5476;51.540;7.186;2022-09-12T05:03:31;20.73;;;14.30;;
10845;SDS011;5476;51.540;7.186;2022-09-12T05:05:58;20.37;;;13.63;;
10845;SDS011;5476;51.540;7.186;2022-09-12T05:08:25;21.03;;;13.57;;
10845;SDS011;5476;51.540;7.186;2022-09-12T05:10:52;20.90;;;13.40;;
10845;SDS011;5476;51.540;7.186;2022-09-12T05:13:19;17.90;;;12.90;;
10845;SDS011;5476;51.540;7.186;2022-09-12T05:15:52;19.27;;;13.87;;
10845;SDS011;5476;51.540;7.186;2022-09-12T05:18:21;23.03;;;14.43;;
10845;SDS011;5476;51.540;7.186;2022-09-12T05:20:48;20.23;;;13.60;;
10845;SDS011;5476;51.540;7.186;2022-09-12T05:23:15;19.60;;;13.43;;
10845;SDS011;5476;51.540;7.186;2022-09-12T05:25:47;21.43;;;14.60;;
10845;SDS011;5476;51.540;7.186;2022-09-12T05:28:14;20.37;;;13.37;;
10845;SDS011;5476;51.540;7.186;2022-09-12T05:30:41;20.03;;;13.40;;
10845;SDS011;5476;51.540;7.186;2022-09-12T05:33:09;22.93;;;14.83;;
10845;SDS011;5476;51.540;7.186;2022-09-12T05:35:37;18.83;;;13.73;;
10845;SDS011;5476;51.540;7.186;2022-09-12T05:38:05;25.20;;;15.43;;
10845;SDS011;5476;51.540;7.186;2022-09-12T05:40:32;20.03;;;14.23;;
10845;SDS011;5476;51.540;7.186;2022-09-12T05:43:00;23.10;;;14.50;;
10845;SDS011;5476;51.540;7.186;2022-09-12T05:45:28;21.17;;;14.30;;
10845;SDS011;5476;51.540;7.186;2022-09-12T05:47:56;20.43;;;14.27;;
10845;SDS011;5476;51.540;7.186;2022-09-12T05:50:23;19.27;;;15.10;;
10845;SDS011;5476;51.540;7.186;2022-09-12T05:52:52;22.97;;;15.50;;
10845;SDS011;5476;51.540;7.186;2022-09-12T05:55:19;20.23;;;14.27;;
10845;SDS011;5476;51.540;7.186;2022-09-12T05:57:47;21.10;;;15.30;;
10845;SDS011;5476;51.540;7.186;2022-09-12T06:00:14;21.83;;;15.53;;
10845;SDS011;5476;51.540;7.186;2022-09-12T06:02:41;23.17;;;15.53;;
10845;SDS011;5476;51.540;7.186;2022-09-12T06:05:09;25.80;;;15.47;;
10845;SDS011;5476;51.540;7.186;2022-09-12T06:07:36;23.50;;;16.10;;
10845;SDS011;5476;51.540;7.186;2022-09-12T06:10:05;21.60;;;15.83;;
10845;SDS011;5476;51.540;7.186;2022-09-12T06:12:34;20.00;;;15.90;;
10845;SDS011;5476;51.540;7.186;2022-09-12T06:15:01;21.67;;;15.10;;
10845;SDS011;5476;51.540;7.186;2022-09-12T06:17:28;23.80;;;15.83;;
10845;SDS011;5476;51.540;7.186;2022-09-12T06:19:55;25.30;;;15.10;;
10845;SDS011;5476;51.540;7.186;2022-09-12T06:22:22;25.70;;;17.17;;
10845;SDS011;5476;51.540;7.186;2022-09-12T06:24:50;20.93;;;15.70;;
10845;SDS011;5476;51.540;7.186;2022-09-12T06:27:18;22.57;;;15.80;;
10845;SDS011;5476;51.540;7.186;2022-09-12T06:29:45;22.17;;;15.97;;
10845;SDS011;5476;51.540;7.186;2022-09-12T06:32:12;29.93;;;16.47;;
10845;SDS011;5476;51.540;7.186;2022-09-12T06:34:41;24.27;;;15.60;;
10845;SDS011;5476;51.540;7.186;2022-09-12T06:37:09;21.60;;;16.27;;
10845;SDS011;5476;51.540;7.186;2022-09-12T06:39:36;21.50;;;15.70;;
10845;SDS011;5476;51.540;7.186;2022-09-12T06:42:03;18.70;;;14.10;;
10845;SDS011;5476;51.540;7.186;2022-09-12T06:44:36;27.70;;;15.63;;
10845;SDS011;5476;51.540;7.186;2022-09-12T06:47:06;24.13;;;16.40;;
10845;SDS011;5476;51.540;7.186;2022-09-12T06:49:33;25.60;;;16.60;;
10845;SDS011;5476;51.540;7.186;2022-09-12T06:52:00;27.77;;;17.75;;
10845;SDS011;5476;51.540;7.186;2022-09-12T06:54:28;25.80;;;15.30;;
10845;SDS011;5476;51.540;7.186;2022-09-12T06:56:55;22.83;;;15.33;;
10845;SDS011;5476;51.540;7.186;2022-09-12T06:59:23;21.85;;;14.55;;
10845;SDS011;5476;51.540;7.186;2022-09-12T07:01:52;23.30;;;15.02;;
10845;SDS011;5476;51.540;7.186;2022-09-12T07:04:20;22.73;;;15.02;;
10845;SDS011;5476;51.540;7.186;2022-09-12T07:06:47;23.05;;;16.10;;
10845;SDS011;5476;51.540;7.186;2022-09-12T07:09:14;25.25;;;16.25;;
10845;SDS011;5476;51.540;7.186;2022-09-12T07:11:47;23.30;;;14.32;;
10845;SDS011;5476;51.540;7.186;2022-09-12T07:14:16;22.60;;;14.88;;
10845;SDS011;5476;51.540;7.186;2022-09-12T07:16:43;22.77;;;15.13;;
10845;SDS011;5476;51.540;7.186;2022-09-12T07:19:11;20.48;;;14.57;;
10845;SDS011;5476;51.540;7.186;2022-09-12T07:21:39;21.52;;;13.82;;
10845;SDS011;5476;51.540;7.186;2022-09-12T07:24:06;20.92;;;13.77;;
10845;SDS011;5476;51.540;7.186;2022-09-12T07:26:34;22.50;;;14.50;;
10845;SDS011;5476;51.540;7.186;2022-09-12T07:29:01;18.80;;;13.55;;
10845;SDS011;5476;51.540;7.186;2022-09-12T07:31:29;25.85;;;14.45;;
10845;SDS011;5476;51.540;7.186;2022-09-12T07:33:56;20.73;;;14.13;;
10845;SDS011;5476;51.540;7.186;2022-09-12T07:36:25;19.88;;;12.77;;
10845;SDS011;5476;51.540;7.186;2022-09-12T07:38:55;15.20;;;11.40;;
10845;SDS011;5476;51.540;7.186;2022-09-12T07:41:23;15.10;;;10.85;;
10845;SDS011;5476;51.540;7.186;2022-09-12T07:43:51;15.30;;;10.55;;
10845;SDS011;5476;51.540;7.186;2022-09-12T07:46:19;14.85;;;10.73;;
10845;SDS011;5476;51.540;7.186;2022-09-12T07:48:50;14.63;;;11.18;;
10845;SDS011;5476;51.540;7.186;2022-09-12T07:51:17;12.65;;;9.68;;
10845;SDS011;5476;51.540;7.186;2022-09-12T07:53:46;11.18;;;9.38;;
10845;SDS011;5476;51.540;7.186;2022-09-12T07:56:14;13.07;;;9.85;;
10845;SDS011;5476;51.540;7.186;2022-09-12T07:58:41;14.40;;;9.63;;
10845;SDS011;5476;51.540;7.186;2022-09-12T08:01:10;14.25;;;10.35;;
10845;SDS011;5476;51.540;7.186;2022-09-12T08:03:39;13.07;;;9.88;;
10845;SDS011;5476;51.540;7.186;2022-09-12T08:06:07;12.52;;;10.55;;
10845;SDS011;5476;51.540;7.186;2022-09-12T08:08:36;11.65;;;9.20;;
10845;SDS011;5476;51.540;7.186;2022-09-12T08:11:06;12.65;;;9.35;;
10845;SDS011;5476;51.540;7.186;2022-09-12T08:13:35;13.52;;;9.30;;
10845;SDS011;5476;51.540;7.186;2022-09-12T08:16:05;12.93;;;9.45;;
10845;SDS011;5476;51.540;7.186;2022-09-12T08:18:33;11.98;;;9.88;;
10845;SDS011;5476;51.540;7.186;2022-09-12T08:21:01;16.15;;;10.30;;
10845;SDS011;5476;51.540;7.186;2022-09-12T08:23:29;14.25;;;10.05;;
10845;SDS011;5476;51.540;7.186;2022-09-12T08:25:57;13.68;;;10.00;;
10845;SDS011;5476;51.540;7.186;2022-09-12T08:28:26;13.57;;;9.90;;
10845;SDS011;5476;51.540;7.186;2022-09-12T08:30:54;12.95;;;9.25;;
10845;SDS011;5476;51.540;7.186;2022-09-12T08:33:26;12.75;;;9.98;;
10845;SDS011;5476;51.540;7.186;2022-09-12T08:36:01;13.68;;;9.70;;
10845;SDS011;5476;51.540;7.186;2022-09-12T08:38:29;10.45;;;9.35;;
10845;SDS011;5476;51.540;7.186;2022-09-12T08:40:58;14.52;;;9.48;;
10845;SDS011;5476;51.540;7.186;2022-09-12T08:43:34;11.95;;;9.85;;
10845;SDS011;5476;51.540;7.186;2022-09-12T08:46:15;12.15;;;9.00;;
10845;SDS011;5476;51.540;7.186;2022-09-12T08:48:45;13.98;;;9.48;;
10845;SDS011;5476;51.540;7.186;2022-09-12T08:51:13;14.38;;;9.52;;
10845;SDS011;5476;51.540;7.186;2022-09-12T08:53:43;11.80;;;9.40;;
10845;SDS011;5476;51.540;7.186;2022-09-12T08:56:14;12.25;;;9.95;;
10845;SDS011;5476;51.540;7.186;2022-09-12T08:58:43;10.95;;;9.55;;
10845;SDS011;5476;51.540;7.186;2022-09-12T09:01:13;15.65;;;10.32;;
10845;SDS011;5476;51.540;7.186;2022-09-12T09:03:58;11.43;;;10.20;;
10845;SDS011;5476;51.540;7.186;2022-09-12T09:06:37;15.10;;;9.77;;
10845;SDS011;5476;51.540;7.186;2022-09-12T09:09:18;12.57;;;9.32;;
10845;SDS011;5476;51.540;7.186;2022-09-12T09:11:54;14.10;;;9.70;;
10845;SDS011;5476;51.540;7.186;2022-09-12T09:14:38;11.55;;;9.38;;
10845;SDS011;5476;51.540;7.186;2022-09-12T09:17:17;12.18;;;8.85;;
10845;SDS011;5476;51.540;7.186;2022-09-12T09:19:50;10.68;;;9.50;;
10845;SDS011;5476;51.540;7.186;2022-09-12T09:22:25;12.77;;;9.95;;
10845;SDS011;5476;51.540;7.186;2022-09-12T09:25:01;11.65;;;8.38;;
10845;SDS011;5476;51.540;7.186;2022-09-12T09:27:32;10.65;;;8.23;;
10845;SDS011;5476;51.540;7.186;2022-09-12T09:30:07;9.68;;;7.93;;
10845;SDS011;5476;51.540;7.186;2022-09-12T09:32:39;8.48;;;7.57;;
10845;SDS011;5476;51.540;7.186;2022-09-12T09:35:10;9.00;;;7.22;;
10845;SDS011;5476;51.540;7.186;2022-09-12T09:37:42;8.95;;;6.85;;
10845;SDS011;5476;51.540;7.186;2022-09-12T09:40:14;7.78;;;6.63;;
10845;SDS011;5476;51.540;7.186;2022-09-12T09:42:43;7.30;;;6.60;;
10845;SDS011;5476;51.540;7.186;2022-09-12T09:45:19;6.97;;;5.68;;
10845;SDS011;5476;51.540;7.186;2022-09-12T09:47:48;6.70;;;5.57;;
10845;SDS011;5476;51.540;7.186;2022-09-12T09:50:18;6.30;;;5.70;;
10845;SDS011;5476;51.540;7.186;2022-09-12T09:52:46;7.40;;;5.60;;
10845;SDS011;5476;51.540;7.186;2022-09-12T09:55:14;7.28;;;6.30;;
10845;SDS011;5476;51.540;7.186;2022-09-12T09:57:45;7.53;;;5.60;;
10845;SDS011;5476;51.540;7.186;2022-09-12T10:00:29;8.52;;;5.70;;
10845;SDS011;5476;51.540;7.186;2022-09-12T10:03:04;7.00;;;5.60;;
10845;SDS011;5476;51.540;7.186;2022-09-12T10:05:44;6.10;;;5.50;;
10845;SDS011;5476;51.540;7.186;2022-09-12T10:08:18;8.40;;;5.10;;
10845;SDS011;5476;51.540;7.186;2022-09-12T10:10:59;6.00;;;4.97;;
10845;SDS011;5476;51.540;7.186;2022-09-12T10:13:29;7.50;;;4.60;;
10845;SDS011;5476;51.540;7.186;2022-09-12T10:16:00;5.50;;;4.30;;
10845;SDS011;5476;51.540;7.186;2022-09-12T10:18:32;5.40;;;4.20;;
10845;SDS011;5476;51.540;7.186;2022-09-12T10:20:59;4.22;;;3.80;;
10845;SDS011;5476;51.540;7.186;2022-09-12T10:23:28;5.65;;;3.90;;
10845;SDS011;5476;51.540;7.186;2022-09-12T10:25:59;5.03;;;4.38;;
10845;SDS011;5476;51.540;7.186;2022-09-12T10:28:30;4.88;;;3.80;;
10845;SDS011;5476;51.540;7.186;2022-09-12T10:30:59;3.80;;;3.50;;
10845;SDS011;5476;51.540;7.186;2022-09-12T10:33:26;4.63;;;3.47;;
10845;SDS011;5476;51.540;7.186;2022-09-12T10:35:55;4.05;;;3.70;;
10845;SDS011;5476;51.540;7.186;2022-09-12T10:38:23;4.35;;;3.53;;
10845;SDS011;5476;51.540;7.186;2022-09-12T10:40:56;3.58;;;3.10;;
10845;SDS011;5476;51.540;7.186;2022-09-12T10:43:25;3.20;;;2.92;;
10845;SDS011;5476;51.540;7.186;2022-09-12T10:45:58;3.95;;;3.30;;
10845;SDS011;5476;51.540;7.186;2022-09-12T10:48:45;3.63;;;3.33;;
10845;SDS011;5476;51.540;7.186;2022-09-12T10:51:13;3.13;;;2.90;;
10845;SDS011;5476;51.540;7.186;2022-09-12T10:53:41;3.42;;;3.13;;
10845;SDS011;5476;51.540;7.186;2022-09-12T10:56:11;3.72;;;3.40;;
10845;SDS011;5476;51.540;7.186;2022-09-12T10:58:45;4.10;;;3.53;;
10845;SDS011;5476;51.540;7.186;2022-09-12T11:01:28;3.60;;;3.25;;
10845;SDS011;5476;51.540;7.186;2022-09-12T11:04:13;2.88;;;2.67;;
10845;SDS011;5476;51.540;7.186;2022-09-12T11:06:57;3.75;;;2.88;;
10845;SDS011;5476;51.540;7.186;2022-09-12T11:09:39;3.28;;;3.05;;
10845;SDS011;5476;51.540;7.186;2022-09-12T11:12:15;3.45;;;2.70;;
10845;SDS011;5476;51.540;7.186;2022-09-12T11:14:54;2.72;;;2.47;;
10845;SDS011;5476;51.540;7.186;2022-09-12T11:17:32;3.75;;;3.00;;
10845;SDS011;5476;51.540;7.186;2022-09-12T11:23:30;2.88;;;2.67;;
10845;SDS011;5476;51.540;7.186;2022-09-12T11:26:18;2.60;;;2.40;;
10845;SDS011;5476;51.540;7.186;2022-09-12T11:28:55;3.30;;;3.08;;
10845;SDS011;5476;51.540;7.186;2022-09-12T11:34:14;2.88;;;2.60;;
10845;SDS011;5476;51.540;7.186;2022-09-12T11:36:57;2.72;;;2.47;;
10845;SDS011;5476;51.540;7.186;2022-09-12T11:39:34;2.58;;;2.38;;
10845;SDS011;5476;51.540;7.186;2022-09-12T11:42:06;3.05;;;2.75;;
10845;SDS011;5476;51.540;7.186;2022-09-12T11:44:38;2.65;;;2.45;;
10845;SDS011;5476;51.540;7.186;2022-09-12T11:47:09;2.97;;;2.78;;
10845;SDS011;5476;51.540;7.186;2022-09-12T11:49:38;3.38;;;2.80;;
10845;SDS011;5476;51.540;7.186;2022-09-12T11:52:12;2.83;;;2.63;;
10845;SDS011;5476;51.540;7.186;2022-09-12T11:54:41;3.15;;;2.70;;
10845;SDS011;5476;51.540;7.186;2022-09-12T11:57:13;2.70;;;2.50;;
10845;SDS011;5476;51.540;7.186;2022-09-12T11:59:46;2.45;;;2.25;;
10845;SDS011;5476;51.540;7.186;2022-09-12T12:02:20;2.63;;;2.20;;
10845;SDS011;5476;51.540;7.186;2022-09-12T12:04:58;3.03;;;2.72;;
10845;SDS011;5476;51.540;7.186;2022-09-12T12:07:33;2.53;;;2.33;;
10845;SDS011;5476;51.540;7.186;2022-09-12T12:10:19;3.10;;;2.88;;
10845;SDS011;5476;51.540;7.186;2022-09-12T12:12:50;2.92;;;2.63;;
10845;SDS011;5476;51.540;7.186;2022-09-12T12:15:20;3.00;;;2.75;;
10845;SDS011;5476;51.540;7.186;2022-09-12T12:17:58;2.97;;;2.78;;
10845;SDS011;5476;51.540;7.186;2022-09-12T12:20:27;2.53;;;2.20;;
10845;SDS011;5476;51.540;7.186;2022-09-12T12:22:55;2.85;;;2.30;;
10845;SDS011;5476;51.540;7.186;2022-09-12T12:25:24;2.90;;;2.50;;
10845;SDS011;5476;51.540;7.186;2022-09-12T12:28:04;2.60;;;2.40;;
10845;SDS011;5476;51.540;7.186;2022-09-12T12:36:42;2.80;;;2.58;;
10845;SDS011;5476;51.540;7.186;2022-09-12T12:42:10;2.45;;;2.25;;
10845;SDS011;5476;51.540;7.186;2022-09-12T12:48:45;3.22;;;2.88;;
10845;SDS011;5476;51.540;7.186;2022-09-12T12:51:32;2.70;;;2.50;;
10845;SDS011;5476;51.540;7.186;2022-09-12T12:56:59;3.45;;;2.50;;
10845;SDS011;5476;51.540;7.186;2022-09-12T12:59:28;2.88;;;2.67;;
10845;SDS011;5476;51.540;7.186;2022-09-12T13:01:56;2.67;;;2.47;;
10845;SDS011;5476;51.540;7.186;2022-09-12T13:04:26;3.05;;;2.75;;
10845;SDS011;5476;51.540;7.186;2022-09-12T13:06:59;3.28;;;2.70;;
10845;SDS011;5476;51.540;7.186;2022-09-12T13:09:30;4.78;;;4.30;;
10845;SDS011;5476;51.540;7.186;2022-09-12T13:12:00;2.83;;;2.40;;
10845;SDS011;5476;51.540;7.186;2022-09-12T13:14:34;2.80;;;2.60;;
10845;SDS011;5476;51.540;7.186;2022-09-12T13:17:14;2.70;;;2.50;;
10845;SDS011;5476;51.540;7.186;2022-09-12T13:19:48;2.80;;;2.60;;
10845;SDS011;5476;51.540;7.186;2022-09-12T13:22:15;2.60;;;2.40;;
10845;SDS011;5476;51.540;7.186;2022-09-12T13:24:43;2.78;;;2.58;;
10845;SDS011;5476;51.540;7.186;2022-09-12T13:27:16;3.00;;;2.80;;
10845;SDS011;5476;51.540;7.186;2022-09-12T13:29:44;3.75;;;2.85;;
10845;SDS011;5476;51.540;7.186;2022-09-12T13:32:12;2.90;;;2.70;;
10845;SDS011;5476;51.540;7.186;2022-09-12T13:34:45;2.78;;;2.55;;
10845;SDS011;5476;51.540;7.186;2022-09-12T13:37:28;4.78;;;2.75;;
10845;SDS011;5476;51.540;7.186;2022-09-12T13:40:05;3.08;;;2.83;;
10845;SDS011;5476;51.540;7.186;2022-09-12T13:42:50;6.50;;;3.17;;
10845;SDS011;5476;51.540;7.186;2022-09-12T13:45:31;2.85;;;2.65;;
10845;SDS011;5476;51.540;7.186;2022-09-12T13:48:02;2.58;;;2.38;;
10845;SDS011;5476;51.540;7.186;2022-09-12T13:50:32;3.50;;;2.60;;
10845;SDS011;5476;51.540;7.186;2022-09-12T13:53:08;3.00;;;2.80;;
10845;SDS011;5476;51.540;7.186;2022-09-12T13:55:41;2.80;;;2.60;;
10845;SDS011;5476;51.540;7.186;2022-09-12T13:58:15;2.75;;;2.55;;
10845;SDS011;5476;51.540;7.186;2022-09-12T14:00:45;2.85;;;2.50;;
10845;SDS011;5476;51.540;7.186;2022-09-12T14:03:25;2.80;;;2.58;;
10845;SDS011;5476;51.540;7.186;2022-09-12T14:06:12;3.47;;;2.60;;
10845;SDS011;5476;51.540;7.186;2022-09-12T14:08:42;4.70;;;2.60;;
10845;SDS011;5476;51.540;7.186;2022-09-12T14:11:11;2.50;;;2.28;;
10845;SDS011;5476;51.540;7.186;2022-09-12T14:13:46;3.92;;;2.35;;
10845;SDS011;5476;51.540;7.186;2022-09-12T14:16:13;3.20;;;2.50;;
10845;SDS011;5476;51.540;7.186;2022-09-12T14:18:41;2.70;;;2.50;;
10845;SDS011;5476;51.540;7.186;2022-09-12T14:21:10;3.03;;;2.60;;
10845;SDS011;5476;51.540;7.186;2022-09-12T14:23:52;2.63;;;2.40;;
10845;SDS011;5476;51.540;7.186;2022-09-12T14:26:19;2.58;;;2.40;;
10845;SDS011;5476;51.540;7.186;2022-09-12T14:28:47;2.60;;;2.40;;
10845;SDS011;5476;51.540;7.186;2022-09-12T14:31:19;2.70;;;2.50;;
10845;SDS011;5476;51.540;7.186;2022-09-12T14:33:49;2.83;;;2.40;;
10845;SDS011;5476;51.540;7.186;2022-09-12T14:36:20;2.80;;;2.60;;
10845;SDS011;5476;51.540;7.186;2022-09-12T14:38:50;2.95;;;2.70;;
10845;SDS011;5476;51.540;7.186;2022-09-12T14:41:21;2.90;;;2.70;;
10845;SDS011;5476;51.540;7.186;2022-09-12T14:43:51;3.53;;;2.90;;
10845;SDS011;5476;51.540;7.186;2022-09-12T14:46:22;3.03;;;2.83;;
10845;SDS011;5476;51.540;7.186;2022-09-12T14:48:53;3.47;;;2.67;;
10845;SDS011;5476;51.540;7.186;2022-09-12T14:51:25;3.30;;;2.70;;
10845;SDS011;5476;51.540;7.186;2022-09-12T14:53:54;2.50;;;2.30;;
10845;SDS011;5476;51.540;7.186;2022-09-12T14:56:35;3.30;;;2.67;;
10845;SDS011;5476;51.540;7.186;2022-09-12T14:59:22;2.60;;;2.40;;
10845;SDS011;5476;51.540;7.186;2022-09-12T15:05:15;2.88;;;2.67;;
10845;SDS011;5476;51.540;7.186;2022-09-12T15:07:50;2.67;;;2.47;;
10845;SDS011;5476;51.540;7.186;2022-09-12T15:10:19;3.20;;;3.00;;
10845;SDS011;5476;51.540;7.186;2022-09-12T15:12:56;2.90;;;2.70;;
10845;SDS011;5476;51.540;7.186;2022-09-12T15:15:40;2.63;;;2.40;;
10845;SDS011;5476;51.540;7.186;2022-09-12T15:18:09;4.45;;;2.70;;
10845;SDS011;5476;51.540;7.186;2022-09-12T15:20:36;3.10;;;2.80;;
10845;SDS011;5476;51.540;7.186;2022-09-12T15:23:06;3.20;;;3.00;;
10845;SDS011;5476;51.540;7.186;2022-09-12T15:25:39;3.17;;;2.97;;
10845;SDS011;5476;51.540;7.186;2022-09-12T15:28:10;3.63;;;3.10;;
10845;SDS011;5476;51.540;7.186;2022-09-12T15:30:43;3.40;;;3.10;;
10845;SDS011;5476;51.540;7.186;2022-09-12T15:33:10;7.35;;;3.88;;
10845;SDS011;5476;51.540;7.186;2022-09-12T15:35:38;22.10;;;12.20;;
10845;SDS011;5476;51.540;7.186;2022-09-12T15:38:06;3.97;;;3.63;;
10845;SDS011;5476;51.540;7.186;2022-09-12T15:40:33;3.88;;;2.90;;
10845;SDS011;5476;51.540;7.186;2022-09-12T15:43:01;3.17;;;2.97;;